createdAt,value
2023-03-17T07:41:58.346Z,21.7872
2023-03-17T07:42:59.743Z,21.6654
2023-03-17T07:44:01.149Z,21.6730
2023-03-17T07:45:02.492Z,21.6956
2023-03-17T07:46:06.190Z,21.7193
2023-03-17T07:47:04.964Z,21.7389
2023-03-17T07:48:06.353Z,21.7829
2023-03-17T07:49:07.749Z,21.9390
2023-03-17T07:50:09.109Z,22.0301
2023-03-17T07:51:10.519Z,22.0027
2023-03-17T07:52:11.913Z,22.0204
2023-03-17T07:53:13.315Z,22.0687
2023-03-17T07:54:15.179Z,22.1233
2023-03-17T07:55:16.572Z,22.1693
2023-03-17T07:56:17.921Z,22.2127
2023-03-17T07:57:19.362Z,22.2371
2023-03-17T07:58:20.723Z,22.2694
2023-03-17T07:59:22.136Z,22.3172
2023-03-17T08:00:23.534Z,22.3855
2023-03-17T08:01:24.876Z,22.4385
2023-03-17T08:02:26.331Z,22.5958
2023-03-17T08:03:27.692Z,22.6720
2023-03-17T08:04:29.114Z,22.6810
2023-03-17T08:05:30.447Z,22.6784
2023-03-17T08:06:31.849Z,22.6893
2023-03-17T08:54:58.877Z,0.0000
2023-03-17T08:55:58.746Z,0.0000
2023-03-17T09:17:31.395Z,0.0000
2023-03-17T09:18:32.147Z,0.0000
2023-03-17T09:19:32.993Z,0.0000
2023-03-17T09:20:34.020Z,0.0000
2023-03-17T09:22:51.159Z,0.0000
2023-03-17T09:34:50.314Z,0.0000
2023-03-17T09:35:48.211Z,0.0000
2023-03-17T09:36:48.176Z,0.0000
2023-03-17T09:42:04.093Z,0.0000
2023-03-17T09:43:55.699Z,0.0000
2023-03-17T09:44:55.636Z,0.0000
2023-03-17T09:45:55.638Z,0.0000
2023-03-17T09:50:47.211Z,0.0000
2023-03-17T09:51:47.166Z,0.0000
2023-03-17T09:54:11.460Z,0.0000
2023-03-17T10:02:55.011Z,25.3351
2023-03-17T10:03:55.217Z,25.2177
2023-03-17T10:04:55.505Z,25.1617
2023-03-17T10:05:55.754Z,25.1708
2023-03-17T10:06:56.053Z,25.1533
2023-03-17T10:07:56.261Z,25.1092
2023-03-17T10:08:56.527Z,25.0955
2023-03-17T10:09:56.817Z,25.1097
2023-03-17T10:12:18.765Z,0.0000
2023-03-17T10:13:18.620Z,0.0000
2023-03-17T10:14:18.626Z,0.0000
2023-03-17T10:15:18.759Z,0.0000
2023-03-17T10:17:12.480Z,25.2164
2023-03-17T10:19:29.871Z,0.0000
2023-03-17T10:20:29.711Z,0.0000
2023-03-17T10:21:30.678Z,0.0000
2023-03-17T10:22:31.122Z,0.0000
2023-03-17T10:23:31.409Z,11.3964
2023-03-17T10:24:31.838Z,25.1702
2023-03-17T10:25:32.557Z,25.0223
2023-03-17T10:26:33.095Z,24.8601
2023-03-17T10:27:33.725Z,24.7728
2023-03-17T10:28:34.103Z,24.7677
2023-03-17T10:29:34.522Z,24.8298
2023-03-17T10:30:35.980Z,24.8371
2023-03-17T10:31:36.398Z,24.7841
2023-03-17T10:33:21.832Z,24.8369
2023-03-17T10:34:23.232Z,24.6704
2023-03-17T10:35:25.830Z,24.6401
2023-03-17T10:36:28.517Z,24.2309
2023-03-17T10:37:31.019Z,24.0277
2023-03-17T10:38:33.576Z,24.0769
2023-03-17T11:28:11.696Z,22.3196
2023-03-17T11:29:14.262Z,22.9113
2023-03-17T11:30:16.844Z,23.5120
2023-03-17T11:31:19.585Z,24.3441
2023-03-17T11:32:22.114Z,24.6852
2023-03-17T11:33:24.706Z,24.7886
2023-03-17T11:34:27.237Z,25.0475
2023-03-17T11:35:29.834Z,25.5715
2023-03-17T11:36:32.383Z,25.9825
2023-03-17T11:37:35.003Z,26.5125
2023-03-17T11:38:37.530Z,26.6227
2023-03-17T11:39:40.107Z,26.3375
2023-03-17T11:40:42.674Z,26.3908
2023-03-17T11:41:45.334Z,26.7087
2023-03-17T11:44:07.882Z,26.5156
2023-03-17T11:45:53.098Z,26.2517
2023-03-17T11:46:55.594Z,26.0512
2023-03-17T11:47:59.894Z,26.0497
2023-03-17T11:49:01.101Z,25.9400
2023-03-17T11:50:03.382Z,25.7804
2023-03-17T11:51:05.945Z,25.6366
2023-03-17T11:52:08.495Z,25.6479
2023-03-17T11:53:11.078Z,25.6527
2023-03-17T11:54:13.674Z,25.6582
2023-03-17T11:55:16.243Z,25.6390
2023-03-17T11:56:18.851Z,25.5883
2023-03-17T11:59:17.969Z,25.4851
2023-03-17T12:00:20.537Z,25.3308
2023-03-17T17:59:32.387Z,21.2128
2023-03-17T18:02:42.577Z,21.3337
2023-03-17T18:03:45.125Z,21.2521
2023-03-17T18:04:47.729Z,21.3165
2023-03-17T18:05:50.288Z,21.3727
2023-03-17T18:07:39.142Z,21.5430
2023-03-17T18:08:41.807Z,21.3899
2023-03-17T18:09:44.308Z,21.4141
2023-03-17T18:10:46.902Z,21.3734
2023-03-17T18:11:49.492Z,21.3249
2023-03-17T18:12:52.112Z,21.3340
2023-03-17T18:13:54.646Z,21.4043
2023-03-17T18:14:57.234Z,21.5287
2023-03-17T18:15:59.804Z,21.5492
2023-03-17T18:17:02.448Z,21.5754
2023-03-17T18:18:05.003Z,21.5865
2023-03-17T18:19:07.561Z,21.6488
2023-03-17T18:20:10.223Z,21.6954
2023-03-17T18:21:12.726Z,21.7289
2023-03-17T18:22:15.324Z,21.8094
2023-03-17T18:23:17.914Z,21.8848
2023-03-17T18:24:20.482Z,21.9232
2023-03-17T18:25:23.148Z,21.9705
2023-03-17T18:26:25.807Z,21.9303
2023-03-17T18:28:59.429Z,22.1743
2023-03-17T18:30:02.015Z,22.0986
2023-03-17T18:31:04.643Z,22.1336
2023-03-17T18:32:07.459Z,22.2437
2023-03-17T18:33:09.864Z,22.3104
2023-03-17T18:34:12.344Z,22.3956
2023-03-17T18:35:14.921Z,22.5363
2023-03-17T18:41:26.656Z,23.2322
2023-03-17T18:42:29.231Z,23.2919
2023-03-17T18:43:31.807Z,23.4068
